Time;durP1;ratioP1;P1;durP2;ratioP2;P2;SDS_P1;SDS_P2;PMS_P1;PMS_P2;Temp;Humidity;BMP_temperature;BMP_pressure;BME280_temperature;BME280_humidity;BME280_pressure;Samples;Min_cycle;Max_cycle;Signal;HPM_P1;HPM_P2
2023/04/17 00:00:49;;;;;;;15.15;12.32;;;14.40;99.90;;;;;;4592374;19;20011;-30
2023/04/17 00:02:28;;;;;;;15.63;12.57;;;14.40;99.90;;;;;;4591321;19;20018;-30
2023/04/17 00:04:00;;;;;;;15.73;12.37;;;14.40;99.90;;;;;;4592327;19;20017;-30
2023/04/17 00:05:32;;;;;;;15.02;12.07;;;14.40;99.90;;;;;;4592504;19;20558;-30
2023/04/17 00:07:04;;;;;;;14.67;12.43;;;14.40;99.90;;;;;;4592603;19;20084;-30
2023/04/17 00:08:37;;;;;;;16.90;11.90;;;14.40;99.90;;;;;;4592572;19;20019;-30
2023/04/17 00:10:09;;;;;;;16.05;12.48;;;14.40;99.90;;;;;;4590922;19;20015;-30
2023/04/17 00:11:42;;;;;;;14.33;11.60;;;14.30;99.90;;;;;;4591000;19;20022;-30
2023/04/17 00:13:13;;;;;;;14.70;13.13;;;14.40;99.90;;;;;;4591803;19;20015;-30
2023/04/17 00:14:46;;;;;;;15.90;12.47;;;14.40;99.90;;;;;;4592073;19;20351;-30
2023/04/17 00:16:18;;;;;;;16.67;11.90;;;14.40;99.90;;;;;;4591380;19;20022;-30
2023/04/17 00:17:50;;;;;;;15.70;10.63;;;14.40;99.90;;;;;;4592723;19;20012;-30
2023/04/17 00:19:22;;;;;;;13.43;11.87;;;14.40;99.90;;;;;;4592400;19;20010;-30
2023/04/17 00:20:53;;;;;;;14.50;11.50;;;14.40;99.90;;;;;;4591789;19;20017;-30
2023/04/17 00:22:24;;;;;;;15.20;11.95;;;14.40;99.90;;;;;;4592121;19;20018;-30
2023/04/17 00:23:57;;;;;;;15.23;12.37;;;14.30;99.90;;;;;;4591621;19;20348;-30
2023/04/17 00:25:29;;;;;;;14.57;12.87;;;14.40;99.90;;;;;;4591197;19;20003;-30
2023/04/17 00:27:02;;;;;;;16.70;12.57;;;14.40;99.90;;;;;;4591124;19;20029;-30
2023/04/17 00:28:32;;;;;;;15.83;13.60;;;14.40;99.90;;;;;;4591056;19;20010;-30
2023/04/17 00:30:05;;;;;;;13.85;12.30;;;14.40;99.90;;;;;;4591006;19;20038;-30
2023/04/17 00:31:37;;;;;;;14.53;13.03;;;14.40;99.90;;;;;;4590671;19;20364;-30
2023/04/17 00:33:09;;;;;;;15.00;12.80;;;14.40;99.90;;;;;;4591775;19;20022;-30
2023/04/17 00:34:41;;;;;;;14.90;12.77;;;14.40;99.90;;;;;;4591899;19;20025;-30
2023/04/17 00:36:14;;;;;;;15.43;13.65;;;14.40;99.90;;;;;;4591049;19;20018;-30
2023/04/17 00:37:46;;;;;;;16.03;12.57;;;14.30;99.90;;;;;;4591727;19;20010;-30
2023/04/17 00:39:18;;;;;;;17.23;13.00;;;14.40;99.90;;;;;;4591959;19;20030;-30
2023/04/17 00:40:50;;;;;;;16.92;12.63;;;14.40;99.90;;;;;;4591402;19;20017;-30
2023/04/17 00:42:21;;;;;;;14.67;11.80;;;14.30;99.90;;;;;;4591572;19;20396;-30
2023/04/17 00:43:53;;;;;;;14.30;12.80;;;14.30;99.90;;;;;;4590164;19;20051;-30
2023/04/17 00:45:25;;;;;;;14.20;12.63;;;14.40;99.90;;;;;;4591220;19;20007;-30
2023/04/17 00:46:57;;;;;;;14.33;12.37;;;14.40;99.90;;;;;;4591481;19;20467;-30
2023/04/17 00:48:28;;;;;;;16.42;13.70;;;14.30;99.90;;;;;;4591990;19;20086;-30
2023/04/17 00:50:00;;;;;;;14.60;12.68;;;14.20;99.90;;;;;;4590196;19;20487;-30
2023/04/17 00:51:34;;;;;;;15.40;13.10;;;14.20;99.90;;;;;;4590289;19;20010;-30
2023/04/17 00:53:06;;;;;;;14.17;12.17;;;14.20;99.90;;;;;;4590692;19;20018;-30
2023/04/17 00:54:37;;;;;;;15.20;13.25;;;14.30;99.90;;;;;;4590469;19;20067;-30
2023/04/17 00:56:11;;;;;;;15.80;12.63;;;14.30;99.90;;;;;;4589513;19;20014;-30
2023/04/17 00:57:42;;;;;;;16.27;12.38;;;14.30;99.90;;;;;;4591006;19;20007;-30
2023/04/17 00:59:16;;;;;;;16.48;12.52;;;14.30;99.90;;;;;;4591262;19;20006;-30
2023/04/17 01:00:48;;;;;;;15.13;12.93;;;14.30;99.90;;;;;;4588663;19;20038;-30
2023/04/17 01:02:21;;;;;;;14.70;12.83;;;14.30;99.90;;;;;;4588503;19;20054;-30
2023/04/17 01:03:52;;;;;;;19.00;12.35;;;14.30;99.90;;;;;;4590819;19;20018;-30
2023/04/17 01:05:24;;;;;;;15.50;12.68;;;14.30;99.90;;;;;;4591523;19;20017;-30
2023/04/17 01:06:58;;;;;;;15.70;13.60;;;14.30;99.90;;;;;;4589997;19;20007;-30
2023/04/17 01:08:42;;;;;;;16.30;13.40;;;14.30;99.90;;;;;;4590471;19;20091;-30
2023/04/17 01:10:15;;;;;;;16.57;13.70;;;14.20;99.90;;;;;;4590122;19;20015;-30
2023/04/17 01:11:46;;;;;;;15.82;13.65;;;14.30;99.90;;;;;;4590828;19;20106;-30
2023/04/17 01:13:32;;;;;;;15.67;12.67;;;14.20;99.90;;;;;;4591225;19;20312;-30
2023/04/17 01:15:05;;;;;;;14.70;12.83;;;14.30;99.90;;;;;;4590779;19;20480;-30
2023/04/17 01:16:39;;;;;;;15.63;13.18;;;14.20;99.90;;;;;;4590471;19;20011;-30
2023/04/17 01:18:10;;;;;;;15.30;12.97;;;14.30;99.90;;;;;;4591296;19;20033;-31
2023/04/17 01:19:41;;;;;;;;;;;14.30;99.90;;;;;;4591901;19;20010;-30
2023/04/17 01:21:13;;;;;;;15.15;12.27;;;14.30;99.90;;;;;;4590595;19;19942;-30
2023/04/17 01:22:48;;;;;;;15.88;12.77;;;14.30;99.90;;;;;;4590578;19;20357;-30
2023/04/17 01:24:20;;;;;;;14.30;11.83;;;14.30;99.90;;;;;;4590780;19;20010;-30
2023/04/17 01:25:52;;;;;;;15.70;12.63;;;14.30;99.90;;;;;;4590585;19;20337;-30
2023/04/17 01:27:24;;;;;;;14.57;12.57;;;14.30;99.90;;;;;;4589232;19;20091;-30
2023/04/17 01:28:57;;;;;;;14.73;12.60;;;14.30;99.90;;;;;;4590414;19;20099;-30
2023/04/17 01:30:28;;;;;;;;;;;14.30;99.90;;;;;;4591597;19;20475;-30
2023/04/17 01:32:00;;;;;;;13.90;12.25;;;14.30;99.90;;;;;;4591165;19;19918;-30
2023/04/17 01:33:31;;;;;;;17.00;12.80;;;14.30;99.90;;;;;;4590191;19;20014;-30
2023/04/17 01:35:04;;;;;;;14.70;12.97;;;14.20;99.90;;;;;;4589312;19;20014;-30
2023/04/17 01:36:37;;;;;;;14.23;11.73;;;14.20;99.90;;;;;;4590075;19;20348;-31
2023/04/17 01:38:09;;;;;;;13.53;10.90;;;14.20;99.90;;;;;;4589971;19;20010;-30
2023/04/17 01:39:42;;;;;;;14.93;12.00;;;14.20;99.90;;;;;;4589832;19;20019;-30
2023/04/17 01:41:14;;;;;;;15.75;12.68;;;14.20;99.90;;;;;;4591012;19;20364;-30
2023/04/17 01:42:45;;;;;;;14.27;11.95;;;14.20;99.90;;;;;;4590913;19;20021;-30
2023/04/17 01:44:19;;;;;;;16.92;12.65;;;14.20;99.90;;;;;;4590196;19;20070;-30
2023/04/17 01:45:52;;;;;;;14.27;11.57;;;14.20;99.90;;;;;;4589138;19;20021;-30
2023/04/17 01:47:24;;;;;;;14.93;12.55;;;14.20;99.90;;;;;;4590291;19;20356;-31
2023/04/17 01:48:55;;;;;;;13.45;11.05;;;14.20;99.90;;;;;;4590500;19;20025;-30
2023/04/17 01:50:28;;;;;;;16.10;11.47;;;14.20;99.90;;;;;;4589164;19;20044;-30
2023/04/17 01:52:00;;;;;;;12.97;10.83;;;14.20;99.90;;;;;;4588661;19;20018;-31
2023/04/17 01:53:31;;;;;;;12.70;11.20;;;14.20;99.90;;;;;;4590418;19;20424;-30
2023/04/17 01:56:52;;;;;;;11.60;10.07;;;14.20;99.90;;;;;;4589312;19;20016;-30
2023/04/17 01:58:23;;;;;;;12.40;10.48;;;14.20;99.90;;;;;;4589979;19;20082;-30
2023/04/17 01:59:55;;;;;;;12.88;11.07;;;14.20;99.90;;;;;;4590530;19;20010;-30
2023/04/17 02:01:27;;;;;;;11.77;10.57;;;14.20;99.90;;;;;;4589981;19;20014;-30
2023/04/17 02:02:58;;;;;;;12.85;11.02;;;14.20;99.90;;;;;;4588646;19;20417;-30
2023/04/17 02:04:30;;;;;;;13.60;11.27;;;14.20;99.90;;;;;;4588709;19;20010;-30
2023/04/17 02:06:03;;;;;;;12.37;10.43;;;14.20;99.90;;;;;;4589575;19;20026;-30
2023/04/17 02:07:35;;;;;;;14.67;11.20;;;14.20;99.90;;;;;;4589079;19;20009;-30
2023/04/17 02:09:07;;;;;;;13.35;10.48;;;14.20;99.90;;;;;;4589434;19;20459;-30
2023/04/17 02:10:40;;;;;;;11.97;10.77;;;14.20;99.90;;;;;;4590054;19;20382;-30
2023/04/17 02:12:13;;;;;;;12.07;10.77;;;14.20;99.90;;;;;;4589259;19;20003;-30
2023/04/17 02:13:45;;;;;;;11.87;10.63;;;14.20;99.90;;;;;;4588571;19;20372;-30
2023/04/17 02:15:16;;;;;;;12.57;11.27;;;14.20;99.90;;;;;;4588709;19;20022;-30
2023/04/17 02:16:49;;;;;;;14.03;11.10;;;14.20;99.90;;;;;;4588450;19;20010;-30
2023/04/17 02:18:21;;;;;;;12.77;10.50;;;14.20;99.90;;;;;;4590218;19;20002;-30
2023/04/17 02:19:53;;;;;;;11.90;10.60;;;14.20;99.90;;;;;;4589968;19;20010;-30
2023/04/17 02:21:26;;;;;;;12.50;10.80;;;14.10;99.90;;;;;;4589601;19;20011;-30
2023/04/17 02:23:00;;;;;;;12.68;9.93;;;14.10;99.90;;;;;;4588528;19;20018;-30
2023/04/17 02:24:33;;;;;;;11.80;9.70;;;14.10;99.90;;;;;;4588439;19;20463;-30
2023/04/17 02:26:04;;;;;;;13.27;10.03;;;14.10;99.90;;;;;;4589315;19;20025;-30
2023/04/17 02:27:35;;;;;;;11.27;10.18;;;14.10;99.90;;;;;;4589524;19;20074;-30
2023/04/17 02:29:08;;;;;;;11.90;9.00;;;14.10;99.90;;;;;;4589962;19;20044;-30
2023/04/17 02:30:39;;;;;;;11.10;9.80;;;14.10;99.90;;;;;;4587195;19;20014;-30
2023/04/17 02:32:11;;;;;;;10.70;9.17;;;14.10;99.90;;;;;;4588876;19;20018;-30
2023/04/17 02:33:43;;;;;;;11.73;9.60;;;14.10;99.90;;;;;;4589618;19;20074;-30
2023/04/17 02:35:15;;;;;;;12.15;9.73;;;14.10;99.90;;;;;;4589651;19;20014;-30
2023/04/17 02:36:47;;;;;;;11.90;9.20;;;14.10;99.90;;;;;;4588862;19;20464;-31
2023/04/17 02:38:20;;;;;;;10.47;9.23;;;14.10;99.90;;;;;;4589154;19;20014;-30
2023/04/17 02:39:52;;;;;;;10.48;9.27;;;14.10;99.90;;;;;;4589641;19;20015;-30
2023/04/17 02:41:23;;;;;;;;;;;14.10;99.90;;;;;;4590735;19;20015;-30
2023/04/17 02:42:54;;;;;;;10.10;8.20;;;14.10;99.90;;;;;;4589728;19;20292;-31
2023/04/17 02:44:26;;;;;;;10.27;9.00;;;14.10;99.90;;;;;;4589350;19;20017;-30
2023/04/17 02:45:57;;;;;;;12.52;9.48;;;14.10;99.90;;;;;;4588070;19;20105;-30
2023/04/17 02:47:29;;;;;;;10.40;8.87;;;14.10;99.90;;;;;;4589501;19;20006;-30
2023/04/17 02:49:00;;;;;;;11.75;9.25;;;14.10;99.90;;;;;;4589212;19;20038;-30
2023/04/17 02:50:32;;;;;;;10.02;8.40;;;14.10;99.90;;;;;;4589351;19;20010;-30
2023/04/17 02:52:04;;;;;;;;;;;14.10;99.90;;;;;;4590442;19;20019;-31
2023/04/17 02:53:35;;;;;;;10.40;8.97;;;14.10;99.90;;;;;;4589788;19;19926;-30
2023/04/17 02:55:06;;;;;;;10.85;9.32;;;14.10;99.90;;;;;;4589049;19;20010;-30
2023/04/17 02:56:37;;;;;;;11.45;8.40;;;14.10;99.90;;;;;;4588765;19;20018;-30
2023/04/17 02:58:09;;;;;;;10.10;8.55;;;14.10;99.90;;;;;;4589250;19;20409;-30
2023/04/17 19:47:33;;;;;;;14.77;11.10;;;14.20;99.90;;;;;;4577319;19;21022;-30
2023/04/17 19:49:05;;;;;;;14.87;10.17;;;14.20;99.90;;;;;;4589761;19;20011;-31
2023/04/17 19:50:36;;;;;;;;;;;14.30;99.90;;;;;;4590984;19;20006;-30
2023/04/17 19:52:07;;;;;;;16.13;10.90;;;14.20;99.90;;;;;;4589929;19;19918;-31
2023/04/17 19:53:53;;;;;;;14.27;11.20;;;14.30;99.90;;;;;;4592746;19;20475;-31
2023/04/17 19:55:26;;;;;;;15.00;10.77;;;14.30;99.90;;;;;;4590776;19;20507;-30
2023/04/17 19:56:58;;;;;;;;;;;14.30;99.90;;;;;;4592741;19;20011;-30
2023/04/17 19:58:30;;;;;;;;;;;14.30;99.90;;;;;;4591017;19;19925;-30
2023/04/17 20:00:03;;;;;;;13.93;10.55;;;14.30;99.90;;;;;;4590818;19;19930;-31
2023/04/17 20:01:35;;;;;;;16.57;10.73;;;14.40;99.90;;;;;;4593326;19;20019;-30
2023/04/17 20:03:06;;;;;;;14.70;10.83;;;14.30;99.90;;;;;;4590120;19;20022;-31
2023/04/17 20:04:38;;;;;;;15.27;10.10;;;14.30;99.90;;;;;;4590352;19;20006;-30
2023/04/17 20:06:12;;;;;;;12.03;9.13;;;14.30;99.90;;;;;;4590446;19;20014;-30
2023/04/17 20:07:44;;;;;;;11.93;9.50;;;14.30;99.90;;;;;;4590991;19;20014;-30
2023/04/17 20:09:17;;;;;;;12.00;8.70;;;14.30;99.90;;;;;;4589710;19;20014;-31
2023/04/17 20:10:49;;;;;;;11.73;9.18;;;14.30;99.90;;;;;;4591130;19;21304;-31
2023/04/17 20:12:24;;;;;;;13.23;8.87;;;14.30;99.90;;;;;;4592246;19;20463;-30
2023/04/17 20:14:02;;;;;;;12.37;10.10;;;14.30;99.90;;;;;;4592252;19;20038;-30
2023/04/17 20:15:34;;;;;;;11.93;9.27;;;14.30;99.90;;;;;;4592506;19;20045;-30
2023/04/17 20:17:05;;;;;;;11.85;8.77;;;14.30;99.90;;;;;;4591771;19;20074;-30
2023/04/17 20:18:37;;;;;;;14.10;9.63;;;14.40;99.90;;;;;;4591097;19;20006;-30
2023/04/17 20:20:35;;;;;;;12.68;8.55;;;14.30;99.90;;;;;;4589729;19;20018;-30
2023/04/17 20:22:08;;;;;;;10.67;8.73;;;14.30;99.90;;;;;;4593144;19;20044;-30
2023/04/17 20:23:43;;;;;;;9.70;7.73;;;14.30;99.90;;;;;;4593312;19;20082;-30
2023/04/17 20:25:14;;;;;;;13.20;9.00;;;14.20;99.90;;;;;;4589511;19;20013;-30
2023/04/17 20:26:46;;;;;;;;;;;14.20;99.90;;;;;;4592992;19;20014;-30
2023/04/17 20:28:17;;;;;;;13.30;10.40;;;14.20;99.90;;;;;;4592659;19;19926;-30
2023/04/17 20:29:49;;;;;;;14.43;10.38;;;14.20;99.90;;;;;;4591006;19;20417;-30
2023/04/17 20:31:20;;;;;;;14.43;11.00;;;14.20;99.90;;;;;;4592999;19;20016;-30
2023/04/17 20:32:52;;;;;;;15.05;10.70;;;14.20;99.90;;;;;;4592564;19;20017;-30
2023/04/17 20:34:24;;;;;;;12.32;9.50;;;14.20;99.90;;;;;;4589374;19;20018;-30
2023/04/17 20:35:55;;;;;;;16.00;10.30;;;14.20;99.90;;;;;;4592047;19;20029;-30
2023/04/17 20:37:26;;;;;;;12.60;9.70;;;14.20;99.90;;;;;;4590764;19;20014;-30
2023/04/17 20:38:58;;;;;;;12.95;9.70;;;14.20;99.90;;;;;;4590770;19;20065;-30
2023/04/17 20:40:29;;;;;;;13.77;9.73;;;14.20;99.90;;;;;;4592414;19;20333;-30
2023/04/17 20:42:00;;;;;;;11.48;9.30;;;14.20;99.90;;;;;;4591832;19;20002;-30
2023/04/17 20:43:31;;;;;;;11.80;9.30;;;14.30;99.90;;;;;;4590388;19;20011;-30
2023/04/17 20:45:06;;;;;;;14.87;9.67;;;14.30;99.90;;;;;;4590673;19;20415;-31
2023/04/17 20:46:38;;;;;;;13.57;10.27;;;14.30;99.90;;;;;;4590567;19;20015;-30
2023/04/17 20:48:09;;;;;;;16.38;10.80;;;14.40;99.90;;;;;;4421759;19;3274163;-30
2023/04/17 20:49:40;;;;;;;12.43;10.60;;;14.40;99.90;;;;;;4590637;19;20010;-30
2023/04/17 20:51:12;;;;;;;12.95;10.27;;;14.40;99.90;;;;;;4591482;19;20011;-30
2023/04/17 20:52:43;;;;;;;11.68;10.18;;;14.40;99.90;;;;;;4593678;19;20335;-30
2023/04/17 20:54:15;;;;;;;14.30;10.73;;;14.30;99.90;;;;;;4591377;19;20010;-30
2023/04/17 20:55:48;;;;;;;13.83;11.10;;;14.30;99.90;;;;;;4591612;19;20014;-30
2023/04/17 20:57:20;;;;;;;14.23;11.30;;;14.30;99.90;;;;;;4590644;19;20041;-30
2023/04/17 20:58:51;;;;;;;16.88;11.95;;;14.30;99.90;;;;;;4590936;19;20027;-30
2023/04/17 21:00:25;;;;;;;15.68;12.02;;;14.30;99.90;;;;;;4590725;19;20487;-30
2023/04/17 21:01:56;;;;;;;15.40;12.00;;;14.40;99.90;;;;;;4589930;19;20015;-30
2023/04/17 21:03:29;;;;;;;16.03;11.80;;;14.30;99.90;;;;;;4591479;19;19999;-30
2023/04/17 21:05:00;;;;;;;15.07;11.53;;;14.30;99.90;;;;;;4590001;19;20023;-30
2023/04/17 21:06:33;;;;;;;14.57;12.03;;;14.30;99.90;;;;;;4589830;19;20049;-30
2023/04/17 21:08:05;;;;;;;16.67;12.38;;;14.30;99.90;;;;;;4590860;19;20011;-30
2023/04/17 21:09:36;;;;;;;15.18;11.90;;;14.30;99.90;;;;;;4591137;19;20033;-30
2023/04/17 21:11:07;;;;;;;13.60;11.48;;;14.30;99.90;;;;;;4591651;19;20344;-31
2023/04/17 21:12:38;;;;;;;13.32;11.68;;;14.30;99.90;;;;;;4591091;19;20015;-30
2023/04/17 21:14:12;;;;;;;14.55;12.98;;;14.30;99.90;;;;;;4592636;19;20479;-30
2023/04/17 21:15:43;;;;;;;15.50;13.23;;;14.20;99.90;;;;;;4591554;19;20002;-30
2023/04/17 21:17:15;;;;;;;18.20;12.80;;;14.20;99.90;;;;;;4590817;19;20010;-30
2023/04/17 21:18:47;;;;;;;13.25;11.60;;;14.30;99.90;;;;;;4591173;19;20014;-30
2023/04/17 21:20:20;;;;;;;13.85;11.80;;;14.30;99.90;;;;;;4590279;19;20471;-30
2023/04/17 21:21:54;;;;;;;15.10;11.60;;;14.30;99.90;;;;;;4591396;19;20002;-30
2023/04/17 21:23:25;;;;;;;17.30;12.73;;;14.30;99.90;;;;;;4590726;19;20356;-30
2023/04/17 21:24:57;;;;;;;15.07;12.53;;;14.30;99.90;;;;;;4590866;19;20010;-30
2023/04/17 21:26:31;;;;;;;14.17;11.77;;;14.20;99.90;;;;;;4591128;19;20019;-30
2023/04/17 21:28:02;;;;;;;14.93;11.60;;;14.30;99.90;;;;;;4591465;19;20416;-30
2023/04/17 21:29:34;;;;;;;16.57;12.27;;;14.20;99.90;;;;;;4589433;19;20015;-30
2023/04/17 21:31:09;;;;;;;17.87;14.10;;;14.30;99.90;;;;;;4590592;19;20082;-31
2023/04/17 21:32:41;;;;;;;16.20;12.37;;;14.30;99.90;;;;;;4589547;19;20412;-30
2023/04/17 21:34:13;;;;;;;14.43;11.53;;;14.20;99.90;;;;;;4589584;19;20014;-30
2023/04/17 21:35:44;;;;;;;15.88;13.13;;;14.20;99.90;;;;;;4590130;19;20367;-30
2023/04/17 21:37:15;;;;;;;;;;;14.20;99.90;;;;;;4589805;19;20011;-31
2023/04/17 21:38:46;;;;;;;14.20;12.03;;;14.30;99.90;;;;;;4590683;19;20316;-31
2023/04/17 21:40:18;;;;;;;16.20;11.83;;;14.20;99.90;;;;;;4590160;19;20007;-30
2023/04/17 21:41:50;;;;;;;;;;;14.30;99.90;;;;;;4590884;19;20093;-30
2023/04/17 21:43:21;;;;;;;15.43;12.53;;;14.20;99.90;;;;;;4589407;19;19943;-30
2023/04/17 21:44:53;;;;;;;16.10;12.63;;;14.20;99.90;;;;;;4590237;19;20003;-30
2023/04/17 21:46:26;;;;;;;15.90;12.07;;;14.20;99.90;;;;;;4590818;19;20502;-31
2023/04/17 21:47:57;;;;;;;19.13;12.60;;;14.10;99.90;;;;;;4588406;19;20056;-31
2023/04/17 21:49:29;;;;;;;14.73;11.43;;;14.20;99.90;;;;;;4590102;19;20013;-30
2023/04/17 21:51:03;;;;;;;13.77;11.88;;;14.10;99.90;;;;;;4590785;19;20007;-30
2023/04/17 21:52:35;;;;;;;14.43;11.33;;;14.20;99.90;;;;;;4590357;19;20439;-31
2023/04/17 21:54:08;;;;;;;15.10;11.60;;;14.20;99.90;;;;;;4590303;19;20015;-31
2023/04/17 21:55:41;;;;;;;13.93;11.57;;;14.20;99.90;;;;;;4589177;19;20021;-30
2023/04/17 21:57:12;;;;;;;14.63;12.18;;;14.20;99.90;;;;;;4589759;19;20011;-31
2023/04/17 21:58:44;;;;;;;14.40;12.30;;;14.20;99.90;;;;;;4588741;19;20062;-30
2023/04/17 22:00:17;;;;;;;16.27;11.67;;;14.20;99.90;;;;;;4590023;19;20016;-30
2023/04/17 22:01:51;;;;;;;14.77;12.03;;;14.20;99.90;;;;;;4590303;19;20463;-30
2023/04/17 22:03:27;;;;;;;16.10;11.30;;;14.20;99.90;;;;;;4589129;19;20018;-30
2023/04/17 22:04:59;;;;;;;13.80;12.17;;;14.20;99.90;;;;;;4588874;19;20027;-30
2023/04/17 22:06:35;;;;;;;15.53;11.93;;;14.10;99.90;;;;;;4589972;19;20018;-30
2023/04/17 22:08:06;;;;;;;14.43;12.03;;;14.20;99.90;;;;;;4587908;19;20355;-31
2023/04/17 22:09:38;;;;;;;;;;;14.20;99.90;;;;;;4589494;19;20003;-30
2023/04/17 22:11:09;;;;;;;13.27;10.80;;;14.10;99.90;;;;;;4589616;19;19919;-30
2023/04/17 22:12:41;;;;;;;14.35;11.20;;;14.10;99.90;;;;;;4589002;19;20030;-31
2023/04/17 22:14:13;;;;;;;;;;;14.10;99.90;;;;;;4590953;19;20011;-31
2023/04/17 22:15:45;;;;;;;13.10;11.67;;;14.10;99.90;;;;;;4589463;19;19915;-30
2023/04/17 22:17:20;;;;;;;15.07;12.17;;;14.10;99.90;;;;;;4589213;19;20464;-31
2023/04/17 22:18:53;;;;;;;14.73;11.47;;;14.20;99.90;;;;;;4588649;19;20341;-31
2023/04/17 22:20:25;;;;;;;16.15;13.23;;;14.20;99.90;;;;;;4589631;19;20002;-31
2023/04/17 22:21:57;;;;;;;15.43;11.93;;;14.20;99.90;;;;;;4590483;19;20011;-31
2023/04/17 22:23:29;;;;;;;14.60;12.13;;;14.10;99.90;;;;;;4589832;19;20030;-31
2023/04/17 22:25:01;;;;;;;14.83;11.90;;;14.10;99.90;;;;;;4588973;19;20048;-31
2023/04/17 22:26:34;;;;;;;14.70;12.80;;;14.10;99.90;;;;;;4589364;19;20015;-30
2023/04/17 22:28:07;;;;;;;14.67;11.90;;;14.10;99.90;;;;;;4589973;19;20010;-30
2023/04/17 22:29:40;;;;;;;15.33;12.17;;;14.10;99.90;;;;;;4589716;19;20354;-30
2023/04/17 22:31:13;;;;;;;14.93;11.88;;;14.10;99.90;;;;;;4589875;19;20018;-30
